sensor_id;sensor_type;location;lat;lon;timestamp;temperature;humidity
16441;DHT22;8330;-33.858;151.184;2023-08-12T00:01:57;15.50;99.90
16441;DHT22;8330;-33.858;151.184;2023-08-12T00:04:31;15.70;99.90
16441;DHT22;8330;-33.858;151.184;2023-08-12T00:07:01;15.80;99.90
16441;DHT22;8330;-33.858;151.184;2023-08-12T00:09:32;15.80;99.90
16441;DHT22;8330;-33.858;151.184;2023-08-12T00:12:05;15.90;99.90
16441;DHT22;8330;-33.858;151.184;2023-08-12T00:14:36;15.90;99.90
16441;DHT22;8330;-33.858;151.184;2023-08-12T00:17:07;16.10;99.90
16441;DHT22;8330;-33.858;151.184;2023-08-12T00:19:37;16.20;99.90
16441;DHT22;8330;-33.858;151.184;2023-08-12T00:22:08;16.20;99.90
16441;DHT22;8330;-33.858;151.184;2023-08-12T00:24:39;16.30;99.90
16441;DHT22;8330;-33.858;151.184;2023-08-12T00:27:12;16.40;99.90
16441;DHT22;8330;-33.858;151.184;2023-08-12T00:29:42;16.50;99.90
16441;DHT22;8330;-33.858;151.184;2023-08-12T00:32:13;16.50;99.90
16441;DHT22;8330;-33.858;151.184;2023-08-12T00:34:44;16.60;99.90
16441;DHT22;8330;-33.858;151.184;2023-08-12T00:37:15;16.50;99.90
16441;DHT22;8330;-33.858;151.184;2023-08-12T00:39:45;16.60;99.90
16441;DHT22;8330;-33.858;151.184;2023-08-12T00:42:19;16.70;99.90
16441;DHT22;8330;-33.858;151.184;2023-08-12T00:44:50;16.70;99.90
16441;DHT22;8330;-33.858;151.184;2023-08-12T00:47:21;16.80;99.90
16441;DHT22;8330;-33.858;151.184;2023-08-12T00:49:52;16.90;99.90
16441;DHT22;8330;-33.858;151.184;2023-08-12T00:52:25;16.80;99.90
16441;DHT22;8330;-33.858;151.184;2023-08-12T00:54:56;16.90;99.90
16441;DHT22;8330;-33.858;151.184;2023-08-12T00:57:28;17.00;99.90
16441;DHT22;8330;-33.858;151.184;2023-08-12T01:00:00;17.10;99.90
16441;DHT22;8330;-33.858;151.184;2023-08-12T01:02:32;17.20;99.90
16441;DHT22;8330;-33.858;151.184;2023-08-12T01:05:03;17.20;99.90
16441;DHT22;8330;-33.858;151.184;2023-08-12T01:07:34;17.30;99.90
16441;DHT22;8330;-33.858;151.184;2023-08-12T01:10:05;17.40;99.90
16441;DHT22;8330;-33.858;151.184;2023-08-12T01:12:44;17.40;99.90
16441;DHT22;8330;-33.858;151.184;2023-08-12T01:15:19;17.40;99.90
16441;DHT22;8330;-33.858;151.184;2023-08-12T01:17:52;17.30;99.90
16441;DHT22;8330;-33.858;151.184;2023-08-12T01:20:24;17.40;99.90
16441;DHT22;8330;-33.858;151.184;2023-08-12T01:22:58;17.50;99.90
16441;DHT22;8330;-33.858;151.184;2023-08-12T01:25:34;17.60;99.90
16441;DHT22;8330;-33.858;151.184;2023-08-12T01:28:05;17.80;99.90
16441;DHT22;8330;-33.858;151.184;2023-08-12T01:30:39;18.00;99.90
16441;DHT22;8330;-33.858;151.184;2023-08-12T01:33:19;18.00;99.90
16441;DHT22;8330;-33.858;151.184;2023-08-12T01:35:56;18.20;99.90
16441;DHT22;8330;-33.858;151.184;2023-08-12T01:38:32;18.20;99.90
16441;DHT22;8330;-33.858;151.184;2023-08-12T01:41:06;18.40;99.90
16441;DHT22;8330;-33.858;151.184;2023-08-12T01:43:38;18.50;99.90
16441;DHT22;8330;-33.858;151.184;2023-08-12T01:46:10;18.60;99.90
16441;DHT22;8330;-33.858;151.184;2023-08-12T01:48:41;18.60;99.90
16441;DHT22;8330;-33.858;151.184;2023-08-12T01:51:12;18.80;99.90
16441;DHT22;8330;-33.858;151.184;2023-08-12T01:53:42;18.90;99.70
16441;DHT22;8330;-33.858;151.184;2023-08-12T01:56:15;18.90;99.70
16441;DHT22;8330;-33.858;151.184;2023-08-12T01:58:46;19.00;98.60
16441;DHT22;8330;-33.858;151.184;2023-08-12T02:01:17;19.00;98.60
16441;DHT22;8330;-33.858;151.184;2023-08-12T02:03:47;19.00;98.50
16441;DHT22;8330;-33.858;151.184;2023-08-12T02:06:18;19.10;97.10
16441;DHT22;8330;-33.858;151.184;2023-08-12T02:08:49;19.20;96.70
16441;DHT22;8330;-33.858;151.184;2023-08-12T02:11:22;19.30;96.00
16441;DHT22;8330;-33.858;151.184;2023-08-12T02:13:53;19.40;94.70
16441;DHT22;8330;-33.858;151.184;2023-08-12T02:16:25;19.40;93.40
16441;DHT22;8330;-33.858;151.184;2023-08-12T02:18:56;19.40;92.40
16441;DHT22;8330;-33.858;151.184;2023-08-12T02:21:27;19.50;92.70
16441;DHT22;8330;-33.858;151.184;2023-08-12T02:23:58;19.50;92.10
16441;DHT22;8330;-33.858;151.184;2023-08-12T02:26:31;19.40;91.80
16441;DHT22;8330;-33.858;151.184;2023-08-12T02:29:02;19.50;91.70
16441;DHT22;8330;-33.858;151.184;2023-08-12T02:31:32;19.60;90.50
16441;DHT22;8330;-33.858;151.184;2023-08-12T02:34:04;19.50;90.80
16441;DHT22;8330;-33.858;151.184;2023-08-12T02:36:35;19.60;90.80
16441;DHT22;8330;-33.858;151.184;2023-08-12T02:39:07;19.50;89.90
16441;DHT22;8330;-33.858;151.184;2023-08-12T02:41:40;19.50;89.70
16441;DHT22;8330;-33.858;151.184;2023-08-12T02:44:10;19.50;90.10
16441;DHT22;8330;-33.858;151.184;2023-08-12T02:46:41;19.50;90.00
16441;DHT22;8330;-33.858;151.184;2023-08-12T02:49:12;19.50;90.20
16441;DHT22;8330;-33.858;151.184;2023-08-12T02:51:42;19.60;88.10
16441;DHT22;8330;-33.858;151.184;2023-08-12T02:54:13;19.60;87.30
16441;DHT22;8330;-33.858;151.184;2023-08-12T02:56:46;19.70;87.10
16441;DHT22;8330;-33.858;151.184;2023-08-12T02:59:17;19.60;84.10
16441;DHT22;8330;-33.858;151.184;2023-08-12T03:01:47;19.50;86.80
16441;DHT22;8330;-33.858;151.184;2023-08-12T03:04:22;19.40;86.60
16441;DHT22;8330;-33.858;151.184;2023-08-12T03:06:52;19.40;85.70
16441;DHT22;8330;-33.858;151.184;2023-08-12T03:09:23;19.60;86.30
16441;DHT22;8330;-33.858;151.184;2023-08-12T03:11:57;19.80;86.60
16441;DHT22;8330;-33.858;151.184;2023-08-12T03:14:30;20.00;83.70
16441;DHT22;8330;-33.858;151.184;2023-08-12T03:17:02;20.10;82.60
16441;DHT22;8330;-33.858;151.184;2023-08-12T03:19:33;20.30;81.10
16441;DHT22;8330;-33.858;151.184;2023-08-12T03:22:05;20.50;79.30
16441;DHT22;8330;-33.858;151.184;2023-08-12T03:24:36;20.70;78.50
16441;DHT22;8330;-33.858;151.184;2023-08-12T03:27:10;20.80;77.10
16441;DHT22;8330;-33.858;151.184;2023-08-12T03:29:43;20.90;74.20
16441;DHT22;8330;-33.858;151.184;2023-08-12T03:32:14;20.70;73.20
16441;DHT22;8330;-33.858;151.184;2023-08-12T03:34:45;20.60;72.60
16441;DHT22;8330;-33.858;151.184;2023-08-12T03:37:16;20.60;73.30
16441;DHT22;8330;-33.858;151.184;2023-08-12T03:39:48;20.40;71.70
16441;DHT22;8330;-33.858;151.184;2023-08-12T03:42:21;20.30;71.20
16441;DHT22;8330;-33.858;151.184;2023-08-12T03:44:52;20.30;70.80
16441;DHT22;8330;-33.858;151.184;2023-08-12T03:47:23;20.20;71.00
16441;DHT22;8330;-33.858;151.184;2023-08-12T03:49:55;20.10;70.00
16441;DHT22;8330;-33.858;151.184;2023-08-12T03:52:26;20.10;70.90
16441;DHT22;8330;-33.858;151.184;2023-08-12T03:54:57;20.10;71.40
16441;DHT22;8330;-33.858;151.184;2023-08-12T03:57:30;20.10;71.50
16441;DHT22;8330;-33.858;151.184;2023-08-12T04:00:01;20.10;70.90
16441;DHT22;8330;-33.858;151.184;2023-08-12T04:02:35;20.10;69.90
16441;DHT22;8330;-33.858;151.184;2023-08-12T04:05:06;20.20;69.20
16441;DHT22;8330;-33.858;151.184;2023-08-12T04:07:38;20.20;69.20
16441;DHT22;8330;-33.858;151.184;2023-08-12T04:10:09;20.40;68.50
16441;DHT22;8330;-33.858;151.184;2023-08-12T04:12:43;20.50;68.20
16441;DHT22;8330;-33.858;151.184;2023-08-12T04:15:14;20.60;66.20
16441;DHT22;8330;-33.858;151.184;2023-08-12T04:17:45;20.70;64.70
16441;DHT22;8330;-33.858;151.184;2023-08-12T04:20:16;20.70;63.10
16441;DHT22;8330;-33.858;151.184;2023-08-12T04:22:48;20.70;65.10
16441;DHT22;8330;-33.858;151.184;2023-08-12T04:25:19;20.80;63.80
16441;DHT22;8330;-33.858;151.184;2023-08-12T04:27:54;20.90;64.60
16441;DHT22;8330;-33.858;151.184;2023-08-12T04:30:26;20.90;63.80
16441;DHT22;8330;-33.858;151.184;2023-08-12T04:32:57;20.80;63.20
16441;DHT22;8330;-33.858;151.184;2023-08-12T04:35:31;20.80;63.80
16441;DHT22;8330;-33.858;151.184;2023-08-12T04:38:02;20.70;64.40
16441;DHT22;8330;-33.858;151.184;2023-08-12T04:40:33;20.70;63.30
16441;DHT22;8330;-33.858;151.184;2023-08-12T04:43:08;20.70;63.60
16441;DHT22;8330;-33.858;151.184;2023-08-12T04:45:39;20.60;64.10
16441;DHT22;8330;-33.858;151.184;2023-08-12T04:48:10;20.60;63.90
16441;DHT22;8330;-33.858;151.184;2023-08-12T04:50:43;20.70;63.30
16441;DHT22;8330;-33.858;151.184;2023-08-12T04:53:14;20.90;62.90
16441;DHT22;8330;-33.858;151.184;2023-08-12T04:55:50;20.90;62.10
16441;DHT22;8330;-33.858;151.184;2023-08-12T04:58:23;21.00;62.80
16441;DHT22;8330;-33.858;151.184;2023-08-12T05:00:55;21.00;63.20
16441;DHT22;8330;-33.858;151.184;2023-08-12T05:03:26;21.20;63.50
16441;DHT22;8330;-33.858;151.184;2023-08-12T05:05:58;21.20;63.50
16441;DHT22;8330;-33.858;151.184;2023-08-12T05:08:30;21.20;62.90
16441;DHT22;8330;-33.858;151.184;2023-08-12T05:11:01;21.30;62.90
16441;DHT22;8330;-33.858;151.184;2023-08-12T05:13:35;21.30;60.10
16441;DHT22;8330;-33.858;151.184;2023-08-12T05:16:06;21.40;58.10
16441;DHT22;8330;-33.858;151.184;2023-08-12T05:18:38;21.30;58.00
16441;DHT22;8330;-33.858;151.184;2023-08-12T05:21:09;21.30;59.00
16441;DHT22;8330;-33.858;151.184;2023-08-12T05:23:41;21.30;58.70
16441;DHT22;8330;-33.858;151.184;2023-08-12T05:26:12;21.20;58.70
16441;DHT22;8330;-33.858;151.184;2023-08-12T05:28:46;21.30;58.50
16441;DHT22;8330;-33.858;151.184;2023-08-12T05:31:18;21.40;57.80
16441;DHT22;8330;-33.858;151.184;2023-08-12T05:33:49;21.50;57.60
16441;DHT22;8330;-33.858;151.184;2023-08-12T05:36:23;21.60;57.00
16441;DHT22;8330;-33.858;151.184;2023-08-12T05:38:55;21.50;60.60
16441;DHT22;8330;-33.858;151.184;2023-08-12T05:41:26;21.50;65.40
16441;DHT22;8330;-33.858;151.184;2023-08-12T05:44:00;21.40;67.20
16441;DHT22;8330;-33.858;151.184;2023-08-12T05:46:32;21.20;69.40
16441;DHT22;8330;-33.858;151.184;2023-08-12T05:49:03;21.10;71.40
16441;DHT22;8330;-33.858;151.184;2023-08-12T05:51:35;20.90;74.80
16441;DHT22;8330;-33.858;151.184;2023-08-12T05:54:06;20.70;77.60
16441;DHT22;8330;-33.858;151.184;2023-08-12T05:56:38;20.70;79.20
16441;DHT22;8330;-33.858;151.184;2023-08-12T05:59:12;20.60;81.50
16441;DHT22;8330;-33.858;151.184;2023-08-12T06:01:43;20.30;84.20
16441;DHT22;8330;-33.858;151.184;2023-08-12T06:04:15;20.30;85.60
16441;DHT22;8330;-33.858;151.184;2023-08-12T06:06:47;20.30;85.80
16441;DHT22;8330;-33.858;151.184;2023-08-12T06:09:18;20.10;86.50
16441;DHT22;8330;-33.858;151.184;2023-08-12T06:11:50;20.10;87.40
16441;DHT22;8330;-33.858;151.184;2023-08-12T06:14:23;20.00;88.30
16441;DHT22;8330;-33.858;151.184;2023-08-12T06:16:55;19.90;89.10
16441;DHT22;8330;-33.858;151.184;2023-08-12T06:19:26;19.80;88.40
16441;DHT22;8330;-33.858;151.184;2023-08-12T06:21:58;19.70;89.80
16441;DHT22;8330;-33.858;151.184;2023-08-12T06:24:31;19.60;90.00
16441;DHT22;8330;-33.858;151.184;2023-08-12T06:27:03;19.60;90.70
16441;DHT22;8330;-33.858;151.184;2023-08-12T06:29:36;19.50;91.30
16441;DHT22;8330;-33.858;151.184;2023-08-12T06:32:09;19.50;91.90
16441;DHT22;8330;-33.858;151.184;2023-08-12T06:34:42;19.40;92.70
16441;DHT22;8330;-33.858;151.184;2023-08-12T06:37:14;19.30;93.40
16441;DHT22;8330;-33.858;151.184;2023-08-12T06:39:46;19.30;93.90
16441;DHT22;8330;-33.858;151.184;2023-08-12T06:42:17;19.20;94.30
16441;DHT22;8330;-33.858;151.184;2023-08-12T06:44:53;19.20;94.90
16441;DHT22;8330;-33.858;151.184;2023-08-12T06:47:25;19.10;94.70
16441;DHT22;8330;-33.858;151.184;2023-08-12T06:49:57;19.10;94.60
16441;DHT22;8330;-33.858;151.184;2023-08-12T06:52:30;19.00;94.40
16441;DHT22;8330;-33.858;151.184;2023-08-12T06:55:01;18.90;94.40
16441;DHT22;8330;-33.858;151.184;2023-08-12T06:57:33;18.90;94.80
16441;DHT22;8330;-33.858;151.184;2023-08-12T07:00:08;18.80;94.90
16441;DHT22;8330;-33.858;151.184;2023-08-12T07:02:39;18.80;95.10
16441;DHT22;8330;-33.858;151.184;2023-08-12T07:05:11;18.70;94.80
16441;DHT22;8330;-33.858;151.184;2023-08-12T07:07:42;18.60;95.10
16441;DHT22;8330;-33.858;151.184;2023-08-12T07:10:14;18.60;95.20
16441;DHT22;8330;-33.858;151.184;2023-08-12T07:12:46;18.60;95.60
16441;DHT22;8330;-33.858;151.184;2023-08-12T07:15:20;18.60;95.90
16441;DHT22;8330;-33.858;151.184;2023-08-12T07:17:51;18.60;96.10
16441;DHT22;8330;-33.858;151.184;2023-08-12T07:20:24;18.60;96.40
16441;DHT22;8330;-33.858;151.184;2023-08-12T07:22:55;18.50;96.70
16441;DHT22;8330;-33.858;151.184;2023-08-12T07:25:27;18.50;96.70
16441;DHT22;8330;-33.858;151.184;2023-08-12T07:28:00;18.40;97.40
16441;DHT22;8330;-33.858;151.184;2023-08-12T07:30:35;18.40;97.60
16441;DHT22;8330;-33.858;151.184;2023-08-12T07:33:07;18.40;98.20
16441;DHT22;8330;-33.858;151.184;2023-08-12T07:35:38;18.30;98.90
16441;DHT22;8330;-33.858;151.184;2023-08-12T07:38:10;18.30;99.60
16441;DHT22;8330;-33.858;151.184;2023-08-12T07:40:43;18.30;99.00
16441;DHT22;8330;-33.858;151.184;2023-08-12T07:43:14;18.20;99.00
16441;DHT22;8330;-33.858;151.184;2023-08-12T07:45:52;18.20;99.10
16441;DHT22;8330;-33.858;151.184;2023-08-12T07:48:23;18.30;99.20
16441;DHT22;8330;-33.858;151.184;2023-08-12T07:51:00;18.30;99.00
16441;DHT22;8330;-33.858;151.184;2023-08-12T07:53:32;18.20;99.20
16441;DHT22;8330;-33.858;151.184;2023-08-12T07:56:04;18.20;99.30
16441;DHT22;8330;-33.858;151.184;2023-08-12T07:59:16;18.30;99.50
16441;DHT22;8330;-33.858;151.184;2023-08-12T08:01:57;18.20;99.80
16441;DHT22;8330;-33.858;151.184;2023-08-12T08:04:29;18.20;99.50
16441;DHT22;8330;-33.858;151.184;2023-08-12T08:07:00;18.10;99.50
16441;DHT22;8330;-33.858;151.184;2023-08-12T08:09:32;18.10;99.90
16441;DHT22;8330;-33.858;151.184;2023-08-12T08:12:08;18.10;99.90
16441;DHT22;8330;-33.858;151.184;2023-08-12T08:14:40;18.00;99.90
16441;DHT22;8330;-33.858;151.184;2023-08-12T08:17:14;18.00;99.90
16441;DHT22;8330;-33.858;151.184;2023-08-12T08:19:48;17.90;99.90
16441;DHT22;8330;-33.858;151.184;2023-08-12T08:22:20;17.90;99.90
16441;DHT22;8330;-33.858;151.184;2023-08-12T08:24:55;17.90;99.90
16441;DHT22;8330;-33.858;151.184;2023-08-12T08:27:30;17.90;99.90
16441;DHT22;8330;-33.858;151.184;2023-08-12T08:30:02;17.90;99.90
16441;DHT22;8330;-33.858;151.184;2023-08-12T08:32:39;17.90;99.90
16441;DHT22;8330;-33.858;151.184;2023-08-12T08:35:10;17.90;99.90
16441;DHT22;8330;-33.858;151.184;2023-08-12T08:37:42;17.90;99.90
16441;DHT22;8330;-33.858;151.184;2023-08-12T08:40:14;17.90;99.90
16441;DHT22;8330;-33.858;151.184;2023-08-12T08:42:48;17.90;99.90
16441;DHT22;8330;-33.858;151.184;2023-08-12T08:45:23;17.90;99.90
16441;DHT22;8330;-33.858;151.184;2023-08-12T08:48:01;17.90;99.90
16441;DHT22;8330;-33.858;151.184;2023-08-12T08:50:37;17.90;99.90
16441;DHT22;8330;-33.858;151.184;2023-08-12T08:53:10;17.90;99.90
16441;DHT22;8330;-33.858;151.184;2023-08-12T08:55:46;17.90;99.90
16441;DHT22;8330;-33.858;151.184;2023-08-12T08:58:22;17.90;99.90
16441;DHT22;8330;-33.858;151.184;2023-08-12T09:01:09;17.80;99.90
16441;DHT22;8330;-33.858;151.184;2023-08-12T09:03:47;17.80;99.90
16441;DHT22;8330;-33.858;151.184;2023-08-12T09:06:21;17.80;99.90
16441;DHT22;8330;-33.858;151.184;2023-08-12T09:08:54;17.80;99.90
16441;DHT22;8330;-33.858;151.184;2023-08-12T09:11:26;17.80;99.90
16441;DHT22;8330;-33.858;151.184;2023-08-12T09:14:01;17.80;99.90
16441;DHT22;8330;-33.858;151.184;2023-08-12T09:16:42;17.80;99.90
16441;DHT22;8330;-33.858;151.184;2023-08-12T09:19:23;17.70;99.90
16441;DHT22;8330;-33.858;151.184;2023-08-12T09:21:55;17.70;99.90
16441;DHT22;8330;-33.858;151.184;2023-08-12T09:24:31;17.70;99.90
16441;DHT22;8330;-33.858;151.184;2023-08-12T09:27:03;17.70;99.90
16441;DHT22;8330;-33.858;151.184;2023-08-12T09:29:35;17.70;99.90
16441;DHT22;8330;-33.858;151.184;2023-08-12T09:32:09;17.70;99.90
16441;DHT22;8330;-33.858;151.184;2023-08-12T09:34:50;17.60;99.90
16441;DHT22;8330;-33.858;151.184;2023-08-12T09:37:27;17.60;99.90
16441;DHT22;8330;-33.858;151.184;2023-08-12T09:39:58;17.60;99.90
16441;DHT22;8330;-33.858;151.184;2023-08-12T09:42:36;17.50;99.90
16441;DHT22;8330;-33.858;151.184;2023-08-12T09:45:14;17.60;99.90
16441;DHT22;8330;-33.858;151.184;2023-08-12T09:47:48;17.50;99.90
16441;DHT22;8330;-33.858;151.184;2023-08-12T09:50:25;17.50;99.90
16441;DHT22;8330;-33.858;151.184;2023-08-12T09:52:56;17.40;99.90
16441;DHT22;8330;-33.858;151.184;2023-08-12T09:55:33;17.40;99.90
16441;DHT22;8330;-33.858;151.184;2023-08-12T09:58:11;17.30;99.90
16441;DHT22;8330;-33.858;151.184;2023-08-12T10:00:46;17.30;99.90
16441;DHT22;8330;-33.858;151.184;2023-08-12T10:03:19;17.20;99.90
16441;DHT22;8330;-33.858;151.184;2023-08-12T10:05:54;17.20;99.90
16441;DHT22;8330;-33.858;151.184;2023-08-12T10:08:28;17.20;99.90
16441;DHT22;8330;-33.858;151.184;2023-08-12T10:11:00;17.20;99.90
16441;DHT22;8330;-33.858;151.184;2023-08-12T10:13:33;17.10;99.90
16441;DHT22;8330;-33.858;151.184;2023-08-12T10:16:08;17.10;99.90
16441;DHT22;8330;-33.858;151.184;2023-08-12T10:18:49;17.10;99.90
16441;DHT22;8330;-33.858;151.184;2023-08-12T10:21:24;17.10;99.90
16441;DHT22;8330;-33.858;151.184;2023-08-12T10:23:58;17.10;99.90
16441;DHT22;8330;-33.858;151.184;2023-08-12T10:26:29;17.10;99.90
16441;DHT22;8330;-33.858;151.184;2023-08-12T10:29:03;17.10;99.90
16441;DHT22;8330;-33.858;151.184;2023-08-12T10:31:35;17.00;99.90
16441;DHT22;8330;-33.858;151.184;2023-08-12T10:34:19;17.00;99.90
16441;DHT22;8330;-33.858;151.184;2023-08-12T10:36:55;17.10;99.90
16441;DHT22;8330;-33.858;151.184;2023-08-12T10:39:29;17.10;99.90
16441;DHT22;8330;-33.858;151.184;2023-08-12T10:42:07;17.00;99.90
16441;DHT22;8330;-33.858;151.184;2023-08-12T10:44:48;17.00;99.90
16441;DHT22;8330;-33.858;151.184;2023-08-12T10:47:24;16.90;99.90
16441;DHT22;8330;-33.858;151.184;2023-08-12T10:49:56;16.90;99.90
16441;DHT22;8330;-33.858;151.184;2023-08-12T10:52:32;16.90;99.90
16441;DHT22;8330;-33.858;151.184;2023-08-12T10:55:21;16.90;99.90
16441;DHT22;8330;-33.858;151.184;2023-08-12T10:57:52;16.80;99.90
16441;DHT22;8330;-33.858;151.184;2023-08-12T11:00:25;16.80;99.90
16441;DHT22;8330;-33.858;151.184;2023-08-12T11:02:59;16.80;99.90
16441;DHT22;8330;-33.858;151.184;2023-08-12T11:05:37;16.80;99.90
16441;DHT22;8330;-33.858;151.184;2023-08-12T11:08:14;16.80;99.90
16441;DHT22;8330;-33.858;151.184;2023-08-12T11:10:50;16.80;99.90
16441;DHT22;8330;-33.858;151.184;2023-08-12T11:13:27;16.70;99.90
16441;DHT22;8330;-33.858;151.184;2023-08-12T11:16:07;16.70;99.90
16441;DHT22;8330;-33.858;151.184;2023-08-12T11:18:43;16.70;99.90
16441;DHT22;8330;-33.858;151.184;2023-08-12T11:21:19;16.60;99.90
16441;DHT22;8330;-33.858;151.184;2023-08-12T11:23:55;16.60;99.90
16441;DHT22;8330;-33.858;151.184;2023-08-12T11:26:30;16.60;99.90
16441;DHT22;8330;-33.858;151.184;2023-08-12T11:29:01;16.60;99.90
16441;DHT22;8330;-33.858;151.184;2023-08-12T11:31:35;16.60;99.90
16441;DHT22;8330;-33.858;151.184;2023-08-12T11:34:08;16.60;99.90
16441;DHT22;8330;-33.858;151.184;2023-08-12T11:36:39;16.60;99.90
16441;DHT22;8330;-33.858;151.184;2023-08-12T11:39:12;16.60;99.90
16441;DHT22;8330;-33.858;151.184;2023-08-12T11:41:44;16.60;99.90
16441;DHT22;8330;-33.858;151.184;2023-08-12T11:44:20;16.60;99.90
16441;DHT22;8330;-33.858;151.184;2023-08-12T11:46:51;16.50;99.90
16441;DHT22;8330;-33.858;151.184;2023-08-12T11:49:22;16.50;99.90
16441;DHT22;8330;-33.858;151.184;2023-08-12T11:51:54;16.50;99.90
16441;DHT22;8330;-33.858;151.184;2023-08-12T11:54:27;16.40;99.90
16441;DHT22;8330;-33.858;151.184;2023-08-12T11:57:01;16.40;99.90
16441;DHT22;8330;-33.858;151.184;2023-08-12T11:59:32;16.40;99.90
16441;DHT22;8330;-33.858;151.184;2023-08-12T12:02:04;16.40;99.90
16441;DHT22;8330;-33.858;151.184;2023-08-12T12:04:35;16.40;99.90
16441;DHT22;8330;-33.858;151.184;2023-08-12T12:07:19;16.30;99.90
16441;DHT22;8330;-33.858;151.184;2023-08-12T12:09:55;16.30;99.90
16441;DHT22;8330;-33.858;151.184;2023-08-12T12:12:26;16.30;99.90
16441;DHT22;8330;-33.858;151.184;2023-08-12T12:14:57;16.30;99.90
16441;DHT22;8330;-33.858;151.184;2023-08-12T12:17:28;16.30;99.90
16441;DHT22;8330;-33.858;151.184;2023-08-12T12:19:59;16.30;99.90
16441;DHT22;8330;-33.858;151.184;2023-08-12T12:22:33;16.20;99.90
16441;DHT22;8330;-33.858;151.184;2023-08-12T12:25:09;16.20;99.90
16441;DHT22;8330;-33.858;151.184;2023-08-12T12:27:41;16.20;99.90
16441;DHT22;8330;-33.858;151.184;2023-08-12T12:30:14;16.20;99.90
16441;DHT22;8330;-33.858;151.184;2023-08-12T12:32:44;16.10;99.90
16441;DHT22;8330;-33.858;151.184;2023-08-12T12:35:15;16.00;99.90
16441;DHT22;8330;-33.858;151.184;2023-08-12T12:37:46;16.00;99.90
16441;DHT22;8330;-33.858;151.184;2023-08-12T12:40:20;16.00;99.90
16441;DHT22;8330;-33.858;151.184;2023-08-12T12:42:50;16.00;99.90
16441;DHT22;8330;-33.858;151.184;2023-08-12T12:45:21;16.00;99.90
16441;DHT22;8330;-33.858;151.184;2023-08-12T12:47:53;15.90;99.90
16441;DHT22;8330;-33.858;151.184;2023-08-12T12:50:24;15.90;99.90
16441;DHT22;8330;-33.858;151.184;2023-08-12T12:52:55;15.80;99.90
16441;DHT22;8330;-33.858;151.184;2023-08-12T12:55:27;15.80;99.90
16441;DHT22;8330;-33.858;151.184;2023-08-12T12:57:59;15.70;99.90
16441;DHT22;8330;-33.858;151.184;2023-08-12T13:00:29;15.70;99.90
16441;DHT22;8330;-33.858;151.184;2023-08-12T13:03:00;15.70;99.90
16441;DHT22;8330;-33.858;151.184;2023-08-12T13:05:31;15.70;99.90
16441;DHT22;8330;-33.858;151.184;2023-08-12T13:08:02;15.60;99.90
16441;DHT22;8330;-33.858;151.184;2023-08-12T13:10:35;15.60;99.90
16441;DHT22;8330;-33.858;151.184;2023-08-12T13:13:06;15.60;99.90
16441;DHT22;8330;-33.858;151.184;2023-08-12T13:15:36;15.60;99.90
16441;DHT22;8330;-33.858;151.184;2023-08-12T13:18:07;15.50;99.90
16441;DHT22;8330;-33.858;151.184;2023-08-12T13:20:38;15.50;99.90
16441;DHT22;8330;-33.858;151.184;2023-08-12T13:23:09;15.40;99.90
16441;DHT22;8330;-33.858;151.184;2023-08-12T13:25:42;15.40;99.90
16441;DHT22;8330;-33.858;151.184;2023-08-12T13:28:12;15.40;99.90
16441;DHT22;8330;-33.858;151.184;2023-08-12T13:30:44;15.40;99.90
16441;DHT22;8330;-33.858;151.184;2023-08-12T13:33:15;15.40;99.90
16441;DHT22;8330;-33.858;151.184;2023-08-12T13:35:45;15.40;99.90
16441;DHT22;8330;-33.858;151.184;2023-08-12T13:38:16;15.40;99.90
16441;DHT22;8330;-33.858;151.184;2023-08-12T13:40:50;15.40;99.90
16441;DHT22;8330;-33.858;151.184;2023-08-12T13:43:20;15.50;99.90
16441;DHT22;8330;-33.858;151.184;2023-08-12T13:45:51;15.50;99.90
16441;DHT22;8330;-33.858;151.184;2023-08-12T13:48:23;15.50;99.90
16441;DHT22;8330;-33.858;151.184;2023-08-12T13:50:53;15.40;99.90
16441;DHT22;8330;-33.858;151.184;2023-08-12T13:53:24;15.40;99.90
16441;DHT22;8330;-33.858;151.184;2023-08-12T13:55:57;15.50;99.90
16441;DHT22;8330;-33.858;151.184;2023-08-12T13:58:28;15.50;99.90
16441;DHT22;8330;-33.858;151.184;2023-08-12T14:00:58;15.50;99.90
16441;DHT22;8330;-33.858;151.184;2023-08-12T14:03:30;15.40;99.90
16441;DHT22;8330;-33.858;151.184;2023-08-12T14:06:01;15.40;99.90
16441;DHT22;8330;-33.858;151.184;2023-08-12T14:08:31;15.40;99.90
16441;DHT22;8330;-33.858;151.184;2023-08-12T14:11:04;15.40;99.90
16441;DHT22;8330;-33.858;151.184;2023-08-12T14:13:36;15.50;99.90
16441;DHT22;8330;-33.858;151.184;2023-08-12T14:16:06;15.50;99.90
16441;DHT22;8330;-33.858;151.184;2023-08-12T14:18:37;15.50;99.90
16441;DHT22;8330;-33.858;151.184;2023-08-12T14:21:08;15.60;99.90
16441;DHT22;8330;-33.858;151.184;2023-08-12T14:23:38;15.60;99.90
16441;DHT22;8330;-33.858;151.184;2023-08-12T14:26:11;15.60;99.90
16441;DHT22;8330;-33.858;151.184;2023-08-12T14:28:43;15.60;99.90
16441;DHT22;8330;-33.858;151.184;2023-08-12T14:31:14;15.60;99.90
16441;DHT22;8330;-33.858;151.184;2023-08-12T14:33:45;15.60;99.90
16441;DHT22;8330;-33.858;151.184;2023-08-12T14:36:15;15.60;99.90
16441;DHT22;8330;-33.858;151.184;2023-08-12T14:38:46;15.60;99.90
16441;DHT22;8330;-33.858;151.184;2023-08-12T14:41:19;15.60;99.90
16441;DHT22;8330;-33.858;151.184;2023-08-12T14:43:50;15.60;99.90
16441;DHT22;8330;-33.858;151.184;2023-08-12T14:46:21;15.60;99.90
16441;DHT22;8330;-33.858;151.184;2023-08-12T14:48:52;15.60;99.90
16441;DHT22;8330;-33.858;151.184;2023-08-12T14:51:24;15.60;99.90
16441;DHT22;8330;-33.858;151.184;2023-08-12T14:53:57;15.60;99.90
16441;DHT22;8330;-33.858;151.184;2023-08-12T14:56:29;15.60;99.90
16441;DHT22;8330;-33.858;151.184;2023-08-12T14:59:00;15.60;99.90
16441;DHT22;8330;-33.858;151.184;2023-08-12T15:01:32;15.60;99.90
16441;DHT22;8330;-33.858;151.184;2023-08-12T15:04:02;15.60;99.90
16441;DHT22;8330;-33.858;151.184;2023-08-12T15:06:33;15.60;99.90
16441;DHT22;8330;-33.858;151.184;2023-08-12T15:09:04;15.60;99.90
16441;DHT22;8330;-33.858;151.184;2023-08-12T15:11:40;15.60;99.90
16441;DHT22;8330;-33.858;151.184;2023-08-12T15:14:11;15.60;99.90
16441;DHT22;8330;-33.858;151.184;2023-08-12T15:16:42;15.50;99.90
16441;DHT22;8330;-33.858;151.184;2023-08-12T15:19:13;15.60;99.90
16441;DHT22;8330;-33.858;151.184;2023-08-12T15:21:43;15.50;99.90
16441;DHT22;8330;-33.858;151.184;2023-08-12T15:24:14;15.50;99.90
16441;DHT22;8330;-33.858;151.184;2023-08-12T15:26:48;15.60;99.90
16441;DHT22;8330;-33.858;151.184;2023-08-12T15:29:19;15.60;99.90
16441;DHT22;8330;-33.858;151.184;2023-08-12T15:31:50;15.60;99.90
16441;DHT22;8330;-33.858;151.184;2023-08-12T15:34:21;15.60;99.90
16441;DHT22;8330;-33.858;151.184;2023-08-12T15:36:52;15.60;99.90